createdAt,value
2023-12-28T00:02:00.335Z,72.06
2023-12-28T00:04:47.152Z,72.08
2023-12-28T00:07:34.175Z,71.83
2023-12-28T00:10:21.021Z,71.84
2023-12-28T00:13:07.823Z,71.76
2023-12-28T00:15:54.687Z,71.92
2023-12-28T00:18:41.670Z,72.05
2023-12-28T00:21:28.819Z,71.74
2023-12-28T00:24:16.758Z,72.10
2023-12-28T00:27:03.678Z,72.07
2023-12-28T00:29:50.554Z,71.77
2023-12-28T00:32:37.421Z,71.78
2023-12-28T00:35:24.317Z,71.64
2023-12-28T00:38:11.253Z,72.01
2023-12-28T00:40:58.822Z,71.96
2023-12-28T00:43:45.692Z,71.72
2023-12-28T00:46:32.507Z,71.77
2023-12-28T00:49:19.542Z,71.84
2023-12-28T00:52:06.671Z,71.88
2023-12-28T00:54:54.890Z,71.75
2023-12-28T00:57:41.800Z,71.83
2023-12-28T01:00:30.100Z,71.95
2023-12-28T01:03:17.215Z,72.05
2023-12-28T01:06:08.564Z,71.88
2023-12-28T01:08:56.282Z,71.84
2023-12-28T01:11:43.147Z,71.74
2023-12-28T01:14:29.971Z,71.54
2023-12-28T01:17:16.881Z,71.74
2023-12-28T01:20:05.021Z,71.99
2023-12-28T01:22:52.017Z,71.62
2023-12-28T01:25:38.890Z,71.92
2023-12-28T01:28:25.750Z,71.85
2023-12-28T01:31:12.830Z,71.76
2023-12-28T01:33:59.881Z,71.30
2023-12-28T01:36:46.888Z,71.65
2023-12-28T01:39:33.990Z,71.70
2023-12-28T01:42:20.923Z,71.75
2023-12-28T01:45:08.121Z,71.41
2023-12-28T01:47:57.755Z,71.52
2023-12-28T01:50:44.806Z,71.75
2023-12-28T01:53:31.836Z,71.44
2023-12-28T01:56:19.742Z,71.68
2023-12-28T01:59:06.751Z,71.62
2023-12-28T02:01:53.688Z,71.60
2023-12-28T02:04:40.703Z,71.29
2023-12-28T02:07:28.400Z,71.97
2023-12-28T02:10:15.286Z,71.69
2023-12-28T02:13:02.156Z,71.53
2023-12-28T02:15:52.919Z,71.84
2023-12-28T02:18:47.762Z,71.92
2023-12-28T02:21:35.212Z,71.99
2023-12-28T02:24:22.113Z,71.94
2023-12-28T02:27:08.937Z,71.63
2023-12-28T02:29:56.864Z,71.73
2023-12-28T02:33:09.526Z,71.53
2023-12-28T02:35:59.143Z,71.34
2023-12-28T02:38:46.726Z,71.48
2023-12-28T02:41:34.120Z,71.58
2023-12-28T02:44:21.043Z,71.98
2023-12-28T02:47:07.902Z,71.69
2023-12-28T02:49:54.894Z,71.96
2023-12-28T02:52:41.869Z,71.81
2023-12-28T02:55:28.967Z,71.90
2023-12-28T02:58:15.820Z,71.75
2023-12-28T03:01:02.796Z,71.54
2023-12-28T03:03:49.810Z,71.62
2023-12-28T03:06:36.821Z,71.65
2023-12-28T03:09:23.713Z,71.47
2023-12-28T03:12:10.742Z,71.44
2023-12-28T03:14:57.692Z,71.79
2023-12-28T03:17:44.707Z,72.02
2023-12-28T03:20:38.333Z,71.95
2023-12-28T03:23:25.198Z,71.73
2023-12-28T03:26:12.064Z,71.59
2023-12-28T03:28:58.934Z,71.82
2023-12-28T03:31:45.979Z,71.53
2023-12-28T03:34:33.657Z,71.37
2023-12-28T03:37:20.608Z,71.84
2023-12-28T03:40:08.018Z,71.80
2023-12-28T03:42:54.984Z,71.41
2023-12-28T03:45:41.956Z,71.32
2023-12-28T03:48:28.903Z,71.75
2023-12-28T03:51:16.683Z,71.40
2023-12-28T03:54:03.685Z,71.67
2023-12-28T03:56:50.630Z,71.65
2023-12-28T03:59:37.532Z,71.26
2023-12-28T04:02:25.823Z,71.28
2023-12-28T04:05:12.965Z,71.72
2023-12-28T04:08:01.611Z,71.66
2023-12-28T04:10:48.420Z,71.43
2023-12-28T04:13:35.740Z,71.43
2023-12-28T04:16:22.603Z,71.44
2023-12-28T04:19:09.573Z,71.22
2023-12-28T04:21:57.280Z,71.50
2023-12-28T04:24:44.282Z,71.23
2023-12-28T04:27:31.265Z,71.24
2023-12-28T04:30:18.532Z,71.60
2023-12-28T04:33:05.682Z,71.31
2023-12-28T04:35:52.548Z,70.94
2023-12-28T04:38:40.172Z,71.43
2023-12-28T04:41:27.084Z,70.68
2023-12-28T04:44:13.933Z,71.10
2023-12-28T04:47:02.281Z,71.11
2023-12-28T04:49:49.288Z,70.94
2023-12-28T04:52:36.256Z,70.90
2023-12-28T04:55:23.177Z,71.12
2023-12-28T04:58:11.802Z,71.15
2023-12-28T05:00:58.871Z,70.67
2023-12-28T05:03:45.871Z,70.71
2023-12-28T05:06:32.788Z,70.72
2023-12-28T05:09:19.669Z,70.96
2023-12-28T05:12:06.882Z,71.05
2023-12-28T05:14:56.949Z,70.55
2023-12-28T05:17:44.888Z,71.06
2023-12-28T05:20:31.871Z,71.20
2023-12-28T05:23:18.726Z,71.27
2023-12-28T05:26:05.834Z,70.92
2023-12-28T05:28:52.719Z,70.89
2023-12-28T05:31:39.781Z,70.91
2023-12-28T05:34:26.870Z,70.79
2023-12-28T05:37:13.836Z,71.23
2023-12-28T05:40:00.934Z,71.07
2023-12-28T05:42:47.897Z,71.24
2023-12-28T05:45:34.769Z,70.85
2023-12-28T05:48:21.715Z,71.27
2023-12-28T05:51:08.644Z,71.40
2023-12-28T05:53:55.630Z,70.78
2023-12-28T05:56:42.551Z,70.96
2023-12-28T05:59:29.388Z,70.73
2023-12-28T06:02:16.407Z,70.62
2023-12-28T06:05:03.410Z,71.13
2023-12-28T06:07:50.417Z,70.54
2023-12-28T06:10:37.260Z,71.04
2023-12-28T06:13:24.107Z,70.75
2023-12-28T06:16:11.102Z,71.14
2023-12-28T06:18:58.149Z,70.69
2023-12-28T06:21:45.065Z,70.77
2023-12-28T06:24:31.942Z,70.56
2023-12-28T06:27:18.796Z,70.60
2023-12-28T06:30:06.368Z,70.59
2023-12-28T06:32:53.430Z,70.69
2023-12-28T06:35:40.297Z,70.81
2023-12-28T06:38:27.165Z,70.71
2023-12-28T06:41:14.307Z,70.48
2023-12-28T06:44:01.396Z,70.04
2023-12-28T06:46:48.276Z,70.35
2023-12-28T06:49:35.245Z,70.54
2023-12-28T06:52:22.119Z,69.98
2023-12-28T06:55:09.067Z,70.30
2023-12-28T06:57:56.103Z,70.13
2023-12-28T07:00:45.098Z,69.14
2023-12-28T07:03:33.608Z,69.73
2023-12-28T07:06:20.630Z,69.58
2023-12-28T07:09:07.548Z,69.09
2023-12-28T07:11:54.395Z,69.46
2023-12-28T07:14:41.247Z,68.94
2023-12-28T07:17:28.115Z,69.26
2023-12-28T07:20:15.123Z,69.08
2023-12-28T07:23:01.957Z,69.34
2023-12-28T07:25:48.945Z,69.05
2023-12-28T07:28:35.981Z,69.56
2023-12-28T07:31:27.240Z,69.38
2023-12-28T07:34:14.355Z,69.88
2023-12-28T07:37:01.346Z,69.56
2023-12-28T07:39:48.593Z,69.70
2023-12-28T07:42:35.687Z,69.12
2023-12-28T07:45:24.790Z,69.43
2023-12-28T07:48:11.792Z,69.81
2023-12-28T07:50:58.925Z,69.20
2023-12-28T07:53:45.804Z,69.49
2023-12-28T07:56:32.820Z,69.83
2023-12-28T07:59:19.667Z,69.92
2023-12-28T08:02:06.483Z,69.93
2023-12-28T08:04:53.987Z,69.53
2023-12-28T08:07:40.871Z,69.82
2023-12-28T08:10:27.685Z,69.78
2023-12-28T08:13:14.864Z,69.92
2023-12-28T08:16:01.767Z,69.46
2023-12-28T08:18:49.039Z,69.42
2023-12-28T08:21:36.034Z,70.06
2023-12-28T08:24:23.008Z,70.07
2023-12-28T08:27:09.943Z,69.96
2023-12-28T08:29:56.795Z,69.95
2023-12-28T08:32:43.806Z,69.98
2023-12-28T08:35:30.825Z,70.08
2023-12-28T08:38:17.690Z,69.98
2023-12-28T08:41:09.586Z,69.92
2023-12-28T08:43:56.550Z,69.89
2023-12-28T08:46:43.539Z,70.08
2023-12-28T08:49:30.580Z,69.78
2023-12-28T08:52:17.643Z,70.24
2023-12-28T08:55:06.446Z,70.12
2023-12-28T08:57:54.271Z,69.95
2023-12-28T09:00:41.405Z,69.90
2023-12-28T09:03:28.415Z,69.96
2023-12-28T09:06:15.530Z,69.90
2023-12-28T09:09:02.607Z,69.88
2023-12-28T09:11:49.467Z,70.03
2023-12-28T09:14:36.493Z,70.09
2023-12-28T09:17:23.756Z,70.01
2023-12-28T09:20:12.947Z,70.20
2023-12-28T09:22:59.809Z,70.17
2023-12-28T09:25:46.774Z,70.04
2023-12-28T09:28:34.465Z,70.44
2023-12-28T09:31:21.357Z,69.83
2023-12-28T09:34:08.336Z,70.31
2023-12-28T09:36:55.246Z,70.18
2023-12-28T09:39:43.634Z,70.17
2023-12-28T09:42:35.127Z,70.32
2023-12-28T09:45:22.389Z,70.35
2023-12-28T09:48:09.387Z,70.30
2023-12-28T09:50:56.682Z,70.16
2023-12-28T09:53:44.264Z,70.49
2023-12-28T09:56:33.092Z,70.40
2023-12-28T09:59:20.650Z,70.57
2023-12-28T10:02:08.418Z,70.36
2023-12-28T10:04:55.677Z,70.41
2023-12-28T10:07:49.519Z,70.61
2023-12-28T10:10:38.225Z,70.48
2023-12-28T10:13:26.288Z,70.50
2023-12-28T10:16:13.673Z,70.54
2023-12-28T10:19:00.767Z,70.92
2023-12-28T10:21:47.828Z,70.69
2023-12-28T10:24:34.768Z,70.40
2023-12-28T10:27:22.127Z,70.50
2023-12-28T10:30:10.411Z,70.68
2023-12-28T10:32:57.932Z,70.71
2023-12-28T10:35:45.860Z,70.74
2023-12-28T10:38:36.844Z,70.69
2023-12-28T10:41:23.728Z,70.53
2023-12-28T10:44:13.059Z,70.85
2023-12-28T10:47:02.949Z,70.47
2023-12-28T10:49:53.939Z,70.79
2023-12-28T10:52:43.084Z,71.08
2023-12-28T10:55:45.280Z,70.80
2023-12-28T10:58:43.217Z,71.00
2023-12-28T11:01:33.444Z,70.57
2023-12-28T11:04:33.606Z,70.97
2023-12-28T11:07:21.942Z,70.97
2023-12-28T11:10:11.516Z,70.79
2023-12-28T11:13:00.021Z,71.06
2023-12-28T11:15:48.271Z,71.19
2023-12-28T11:18:36.242Z,71.32
2023-12-28T11:21:23.648Z,71.38
2023-12-28T11:24:10.765Z,71.27
2023-12-28T11:27:00.694Z,70.96
2023-12-28T11:29:49.405Z,71.20
2023-12-28T11:32:43.556Z,70.90
2023-12-28T11:35:40.700Z,71.17
2023-12-28T11:38:28.121Z,70.86
2023-12-28T11:41:17.647Z,71.44
2023-12-28T11:44:06.320Z,71.15
2023-12-28T11:46:53.212Z,71.22
2023-12-28T11:49:41.969Z,71.38
2023-12-28T11:52:32.475Z,71.38
2023-12-28T11:55:25.491Z,70.88
2023-12-28T11:58:15.434Z,71.22
2023-12-28T12:01:03.973Z,71.39
2023-12-28T12:03:51.225Z,71.21
2023-12-28T12:06:38.125Z,71.23
2023-12-28T12:09:25.088Z,71.21
2023-12-28T12:12:12.328Z,71.49
2023-12-28T12:14:59.305Z,71.59
2023-12-28T12:17:46.203Z,71.49
2023-12-28T12:20:33.555Z,71.19
2023-12-28T12:23:20.592Z,71.82
2023-12-28T12:26:07.916Z,71.56
2023-12-28T12:28:54.805Z,71.14
2023-12-28T12:31:43.133Z,71.44
2023-12-28T12:34:30.227Z,71.51
2023-12-28T12:37:17.399Z,71.74
2023-12-28T12:40:07.033Z,71.20
2023-12-28T12:42:57.325Z,71.38
2023-12-28T12:45:45.970Z,71.44
2023-12-28T12:48:34.128Z,71.69
2023-12-28T12:51:21.194Z,71.56
2023-12-28T12:54:10.075Z,71.47
2023-12-28T12:56:58.147Z,71.58
2023-12-28T12:59:45.188Z,71.56
2023-12-28T13:02:34.693Z,71.47
2023-12-28T13:05:21.690Z,71.92
2023-12-28T13:08:08.598Z,71.72
2023-12-28T13:10:55.487Z,71.50
2023-12-28T13:13:42.328Z,71.95
2023-12-28T13:16:29.436Z,71.54
2023-12-28T13:19:16.505Z,71.55
2023-12-28T13:22:03.660Z,71.65
2023-12-28T13:24:50.808Z,71.70
2023-12-28T13:27:37.813Z,71.93
2023-12-28T13:30:27.700Z,71.65
2023-12-28T13:33:14.681Z,71.85
2023-12-28T13:36:01.590Z,71.91
2023-12-28T13:38:49.063Z,71.96
2023-12-28T13:41:36.081Z,71.79
2023-12-28T13:44:22.936Z,71.16
2023-12-28T13:47:09.889Z,71.55
2023-12-28T13:49:56.904Z,71.67
2023-12-28T13:52:43.813Z,71.35
2023-12-28T13:55:30.719Z,71.54
2023-12-28T13:58:17.536Z,71.57
2023-12-28T14:01:04.822Z,71.86
2023-12-28T14:03:52.895Z,71.45
2023-12-28T14:06:39.934Z,71.57
2023-12-28T14:09:26.827Z,71.86
2023-12-28T14:12:13.728Z,71.83
2023-12-28T14:15:00.667Z,71.42
2023-12-28T14:17:47.632Z,71.68
2023-12-28T14:20:34.507Z,71.63
2023-12-28T14:23:21.632Z,71.51
2023-12-28T14:26:16.117Z,71.92
2023-12-28T14:29:07.642Z,71.97
2023-12-28T14:31:54.749Z,72.00
2023-12-28T14:34:41.904Z,72.01
2023-12-28T14:37:28.769Z,71.90
2023-12-28T14:40:15.720Z,71.76
2023-12-28T14:43:02.818Z,71.47
2023-12-28T14:45:49.898Z,71.52
2023-12-28T14:48:36.999Z,71.55
2023-12-28T14:51:24.189Z,71.22
2023-12-28T14:54:11.024Z,71.53
2023-12-28T14:56:57.942Z,71.17
2023-12-28T14:59:44.759Z,72.14
2023-12-28T15:02:31.552Z,71.81
2023-12-28T15:05:18.504Z,72.48
2023-12-28T15:08:05.555Z,72.16
2023-12-28T15:10:52.857Z,72.62
2023-12-28T15:13:40.048Z,72.40
2023-12-28T15:16:27.148Z,72.59
2023-12-28T15:19:15.139Z,73.00
2023-12-28T15:22:02.439Z,73.03
2023-12-28T15:24:49.548Z,72.98
2023-12-28T15:27:37.461Z,73.13
2023-12-28T15:30:24.690Z,73.12
2023-12-28T15:33:11.864Z,73.05
2023-12-28T15:35:58.985Z,73.17
2023-12-28T15:38:45.861Z,73.69
2023-12-28T15:41:33.450Z,73.40
2023-12-28T15:44:20.260Z,73.78
2023-12-28T15:47:07.748Z,73.28
2023-12-28T15:49:55.259Z,73.21
2023-12-28T15:52:42.280Z,73.62
2023-12-28T15:55:29.093Z,73.46
2023-12-28T15:58:16.176Z,73.44
2023-12-28T16:01:03.824Z,73.22
2023-12-28T16:03:50.869Z,73.46
2023-12-28T16:06:38.246Z,73.55
2023-12-28T16:09:25.250Z,73.26
2023-12-28T16:12:12.203Z,73.55
2023-12-28T16:14:59.371Z,73.80
2023-12-28T16:17:47.934Z,73.38
2023-12-28T16:20:35.435Z,73.65
2023-12-28T16:23:22.740Z,73.56
2023-12-28T16:26:09.703Z,73.89
2023-12-28T16:28:56.689Z,73.63
2023-12-28T16:31:43.936Z,74.06
2023-12-28T16:34:30.889Z,73.79
2023-12-28T16:37:19.119Z,73.61
2023-12-28T16:40:08.447Z,73.68
2023-12-28T16:42:56.915Z,73.90
2023-12-28T16:45:43.871Z,73.67
2023-12-28T16:48:30.966Z,73.80
2023-12-28T16:51:19.782Z,74.09
2023-12-28T16:54:06.946Z,73.88
2023-12-28T16:56:53.843Z,73.76
2023-12-28T16:59:40.767Z,74.00
2023-12-28T17:02:27.643Z,74.05
2023-12-28T17:05:14.731Z,73.84
2023-12-28T17:08:02.078Z,74.03
2023-12-28T17:10:49.396Z,73.89
2023-12-28T17:13:36.992Z,73.66
2023-12-28T17:16:24.154Z,73.85
2023-12-28T17:19:11.472Z,73.78
2023-12-28T17:21:59.405Z,73.84
2023-12-28T17:25:10.137Z,73.95
2023-12-28T17:27:57.765Z,73.75
2023-12-28T17:30:46.259Z,74.03
2023-12-28T17:33:33.449Z,73.88
2023-12-28T17:36:20.572Z,73.67
2023-12-28T17:39:12.364Z,73.57
2023-12-28T17:42:01.158Z,73.82
2023-12-28T17:44:51.945Z,73.69
2023-12-28T17:47:52.393Z,73.96
2023-12-28T17:50:40.195Z,73.59
2023-12-28T17:53:27.598Z,73.68
2023-12-28T17:56:19.001Z,74.18
2023-12-28T17:59:06.169Z,73.98
2023-12-28T18:01:53.642Z,74.12
2023-12-28T18:04:40.882Z,73.91
2023-12-28T18:07:27.819Z,73.75
2023-12-28T18:10:14.828Z,73.65
2023-12-28T18:13:01.825Z,74.04
2023-12-28T18:15:49.262Z,73.95
2023-12-28T18:18:37.425Z,73.73
2023-12-28T18:21:24.392Z,73.83
2023-12-28T18:24:11.454Z,73.85
2023-12-28T18:26:58.301Z,73.82
2023-12-28T18:29:50.173Z,73.91
2023-12-28T18:32:37.246Z,73.88
2023-12-28T18:35:24.139Z,73.66
2023-12-28T18:38:10.994Z,73.78
2023-12-28T18:40:57.841Z,73.75
2023-12-28T18:43:44.705Z,73.91
2023-12-28T18:46:31.582Z,73.92
2023-12-28T18:49:18.566Z,73.87
2023-12-28T18:52:08.019Z,73.89
2023-12-28T18:54:57.086Z,73.92
2023-12-28T18:57:44.003Z,73.52
2023-12-28T19:00:30.967Z,73.42
2023-12-28T19:03:17.885Z,73.70
2023-12-28T19:06:04.988Z,74.06
2023-12-28T19:08:53.064Z,74.02
2023-12-28T19:11:41.152Z,74.10
2023-12-28T19:14:28.054Z,73.75
2023-12-28T19:17:14.912Z,73.74
2023-12-28T19:20:01.814Z,73.93
2023-12-28T19:22:48.751Z,73.97
2023-12-28T19:25:35.589Z,73.61
2023-12-28T19:28:23.289Z,73.75
2023-12-28T19:31:10.249Z,73.89
2023-12-28T19:33:57.416Z,73.84
2023-12-28T19:36:44.350Z,73.88
2023-12-28T19:39:31.274Z,74.05
2023-12-28T19:42:18.147Z,73.62
2023-12-28T19:45:05.274Z,73.62
2023-12-28T19:47:52.402Z,73.97
2023-12-28T19:50:40.869Z,73.61
2023-12-28T19:53:29.138Z,73.76
2023-12-28T19:56:15.982Z,73.74
2023-12-28T19:59:02.841Z,73.92
2023-12-28T20:01:50.600Z,73.93
2023-12-28T20:04:37.782Z,74.07
2023-12-28T20:07:24.729Z,73.72
2023-12-28T20:10:11.820Z,73.73
2023-12-28T20:12:59.495Z,73.49
2023-12-28T20:15:48.050Z,73.61
2023-12-28T20:18:35.068Z,73.89
2023-12-28T20:21:22.711Z,73.89
2023-12-28T20:24:09.699Z,73.74
2023-12-28T20:26:59.724Z,73.35
2023-12-28T20:29:46.541Z,73.96
2023-12-28T20:32:33.677Z,73.82
2023-12-28T20:35:20.859Z,73.79
2023-12-28T20:38:07.720Z,73.70
2023-12-28T20:40:54.560Z,73.57
2023-12-28T20:43:41.403Z,73.86
2023-12-28T20:46:28.394Z,73.45
2023-12-28T20:49:15.356Z,73.75
2023-12-28T20:52:02.301Z,73.56
2023-12-28T20:54:49.319Z,73.30
2023-12-28T20:57:36.224Z,73.34
2023-12-28T21:00:23.080Z,73.93
2023-12-28T21:03:10.036Z,73.76
2023-12-28T21:05:57.005Z,73.60
2023-12-28T21:08:43.922Z,73.61
2023-12-28T21:11:30.833Z,73.50
2023-12-28T21:14:18.654Z,73.55
2023-12-28T21:17:05.574Z,73.74
2023-12-28T21:19:52.532Z,73.83
2023-12-28T21:22:39.438Z,73.86
2023-12-28T21:25:26.316Z,73.48
2023-12-28T21:28:13.224Z,73.60
2023-12-28T21:31:00.386Z,73.87
2023-12-28T21:33:47.448Z,73.93
2023-12-28T21:36:34.665Z,73.65
2023-12-28T21:39:21.621Z,73.26
2023-12-28T21:42:08.434Z,73.31
2023-12-28T21:44:56.873Z,73.90
2023-12-28T21:47:43.835Z,73.61
2023-12-28T21:50:30.703Z,73.48
2023-12-28T21:53:17.675Z,73.30
2023-12-28T21:56:04.677Z,73.58
2023-12-28T21:58:51.533Z,73.38
2023-12-28T22:01:38.483Z,73.81
2023-12-28T22:04:25.466Z,73.29
2023-12-28T22:07:12.510Z,73.39
2023-12-28T22:09:59.421Z,73.56
2023-12-28T22:12:46.292Z,73.56
2023-12-28T22:15:35.250Z,73.83
2023-12-28T22:18:22.282Z,73.78
2023-12-28T22:21:09.181Z,73.52
2023-12-28T22:23:56.227Z,73.84
2023-12-28T22:26:44.565Z,73.77
2023-12-28T22:29:31.390Z,73.58
2023-12-28T22:32:18.357Z,74.06
2023-12-28T22:35:05.954Z,73.41
2023-12-28T22:37:53.366Z,74.14
2023-12-28T22:40:40.187Z,73.75
2023-12-28T22:43:27.514Z,73.62
2023-12-28T22:46:14.536Z,73.64
2023-12-28T22:49:01.847Z,73.82
2023-12-28T22:51:49.782Z,73.62
2023-12-28T22:54:36.793Z,73.83
2023-12-28T22:57:23.628Z,73.97
2023-12-28T23:00:23.769Z,74.17
2023-12-28T23:03:10.667Z,73.92
2023-12-28T23:05:57.595Z,73.66
2023-12-28T23:08:44.481Z,73.76
2023-12-28T23:11:31.397Z,73.72
2023-12-28T23:14:18.237Z,73.80
2023-12-28T23:17:05.112Z,74.17
2023-12-28T23:19:52.065Z,74.06
2023-12-28T23:22:41.804Z,73.89
2023-12-28T23:25:28.665Z,74.03
2023-12-28T23:28:15.553Z,74.00
2023-12-28T23:31:02.704Z,73.82
2023-12-28T23:33:51.160Z,74.34
2023-12-28T23:36:38.356Z,74.23
2023-12-28T23:39:25.290Z,73.61
2023-12-28T23:42:12.192Z,74.04
2023-12-28T23:44:59.065Z,74.04
2023-12-28T23:47:46.018Z,74.15
2023-12-28T23:50:32.976Z,74.04
2023-12-28T23:53:19.803Z,74.18
2023-12-28T23:56:06.995Z,74.03
2023-12-28T23:58:53.951Z,74.28
